< < Back
Terminal Aerodrome Forecast


Current Version              Previous Versions:   1  2  3  4  5  6  7  8  9  

Terminal Aerodrome Forecast

076
FTUS42 KILM 180500
TAFILM
TAF
KILM 180522Z 1806/1906 03007KT P6SM BKN090
     FM180900 02003KT 5SM BR SCT007 BKN020
     FM181300 04006KT P6SM FEW007 BKN025
     FM181600 07007KT P6SM SCT025 SCT040=



Latest METAR

857
SAUS70 KWBC 182058
MTRILM
METAR KILM 182053Z 10010KT 10SM FEW036 26/18 A2997 RMK AO2 SLP147
T02610178 55002


USA.gov is the U.S. government's official web portal to all federal, state and local government web resources and services.